Latest Weather Observations for Scotts Peak

IDT60801

Issued at 9:31 am EST Wednesday 24 July 2024 (issued every 10 minutes, with the page automatically refreshed every 10 minutes)

About weather observations | Map of weather stations | Latest weather observations for TAS | Other Formats
Station Details ID: 097083 Name: SCOTTS PEAK DAM Lat: -43.04 Lon: 146.27 Height: 408.0 m
Data from the previous 72 hours. | See also: Recent months at Scotts Peak
Date/Time
EST
Temp
°C
App
Temp
°C
Dew
Point
°C
Rel
Hum
%
Delta-T
°C
Wind Press
QNH
hPa
Press
MSL
hPa
Rain since
9am
mm
Dir  Spd
km/h
Gust
km/h
Spd
kts
Gust
kts
24/09:21am 11.7 -2.0 1.9 51 4.3 ENE 63 83 34 45 - - 0.0
24/09:00am 11.5 -1.0 2.3 53 4.1 ENE 57 72 31 39 - - 0.0
24/08:35am 11.2 -3.2 2.2 54 3.9 ENE 67 85 36 46 - - 0.0
24/08:30am 11.2 -3.6 2.0 53 4.0 ENE 69 80 37 43 - - 0.0
24/08:00am 11.0 -2.6 2.1 54 3.9 ENE 63 83 34 45 - - 0.0
24/07:30am 10.6 -2.6 2.4 57 3.6 ENE 61 83 33 45 - - 0.0
24/07:02am 10.8 -3.9 2.4 56 3.7 ENE 69 87 37 47 - - 0.0
24/07:00am 10.6 -4.1 2.4 57 3.6 ENE 69 83 37 45 - - 0.0
24/06:42am 10.6 -3.4 2.2 56 3.7 ENE 65 85 35 46 - - 0.0
24/06:30am 10.8 -3.6 2.1 55 3.8 ENE 67 83 36 45 - - 0.0
24/06:04am 10.5 -2.3 2.6 58 3.5 ENE 59 78 32 42 - - 0.0
24/06:00am 10.3 -2.8 2.7 59 3.3 ENE 61 78 33 42 - - 0.0
24/05:33am 10.5 -2.7 2.6 58 3.5 ENE 61 80 33 43 - - 0.0
24/05:30am 10.6 -2.9 2.7 58 3.5 ENE 63 80 34 43 - - 0.0
24/05:00am 10.6 -4.2 2.9 59 3.4 E 70 91 38 49 - - 0.0
24/04:30am 10.6 -5.4 2.9 59 3.4 ENE 76 102 41 55 - - 0.0
24/04:00am 10.5 -4.1 3.1 60 3.3 ENE 69 89 37 48 - - 0.0
24/03:30am 10.5 -5.5 2.6 58 3.5 ENE 76 102 41 55 - - 0.0
24/03:00am 10.4 -6.4 2.5 58 3.5 ENE 80 98 43 53 - - 0.0
24/02:30am 10.8 -6.7 1.9 54 3.9 ENE 83 109 45 59 - - 0.0
24/02:00am 10.6 -5.1 1.9 55 3.8 E 74 102 40 55 - - 0.0
24/01:30am 10.2 -4.6 1.8 56 3.6 ENE 69 87 37 47 - - 0.0
24/01:03am 10.3 -3.4 1.7 55 3.7 E 63 82 34 44 - - 0.0
24/01:00am 9.8 -3.4 2.2 59 3.3 E 61 76 33 41 - - 0.0
24/12:30am 10.0 -2.8 2.4 59 3.3 ENE 59 78 32 42 - - 0.0
24/12:15am 9.4 -2.4 2.7 63 2.9 ENE 54 72 29 39 - - 0.0
24/12:00am 9.5 -2.2 3.3 65 2.7 ENE 54 69 29 37 - - 0.0
 
Date/Time
EST
Temp
°C
App
Temp
°C
Dew
Point
°C
Rel
Hum
%
Delta-T
°C
Wind Press
QNH
hPa
Press
MSL
hPa
Rain since
9am
mm
Dir  Spd
km/h
Gust
km/h
Spd
kts
Gust
kts
23/11:30pm 9.1 -2.9 3.7 69 2.4 ENE 56 80 30 43 - - 0.0
23/11:00pm 9.0 -3.2 3.8 70 2.3 ENE 57 76 31 41 - - 0.0
23/10:30pm 9.0 -3.5 4.2 72 2.2 ENE 59 82 32 44 - - 0.0
23/10:04pm 9.2 -2.6 4.6 73 2.1 ENE 56 74 30 40 - - 0.0
23/10:00pm 9.4 -2.6 4.6 72 2.2 ENE 57 72 31 39 - - 0.0
23/09:30pm 9.5 -2.9 4.9 73 2.1 E 59 85 32 46 - - 0.0
23/09:05pm 9.7 -2.2 5.3 74 2.0 ENE 57 76 31 41 - - 0.0
23/09:00pm 9.6 -1.7 5.6 76 1.9 ENE 54 69 29 37 - - 0.0
23/08:35pm 9.6 -2.1 5.4 75 2.0 E 56 74 30 40 - - 0.0
23/08:30pm 9.5 -2.7 5.5 76 1.9 ENE 59 74 32 40 - - 0.0
23/08:02pm 9.6 -1.7 5.4 75 2.0 ENE 54 72 29 39 - - 0.0
23/08:00pm 9.6 -1.7 5.4 75 2.0 E 54 70 29 38 - - 0.0
23/07:30pm 9.7 -3.3 5.3 74 2.0 ENE 63 83 34 45 - - 0.0
23/07:00pm 9.7 -3.3 5.3 74 2.0 E 63 85 34 46 - - 0.0
23/06:30pm 9.7 -3.3 5.3 74 2.0 E 63 93 34 50 - - 0.0
23/06:00pm 9.8 -2.5 5.2 73 2.1 E 59 87 32 47 - - 0.0
23/05:41pm 9.7 -2.2 5.1 73 2.1 ENE 57 76 31 41 - - 0.0
23/05:30pm 9.7 -2.6 5.3 74 2.0 E 59 76 32 41 - - 0.0
23/05:00pm 10.0 -1.6 5.6 74 2.1 ENE 56 80 30 43 - - 0.0
23/04:37pm 9.9 -2.3 5.7 75 2.0 E 59 78 32 42 - - 0.0
23/04:30pm 10.1 -2.5 5.7 74 2.1 E 61 74 33 40 - - 0.0
23/04:05pm 10.3 -2.7 5.3 71 2.3 E 63 83 34 45 - - 0.0
23/04:00pm 10.4 -2.9 5.6 72 2.3 E 65 80 35 43 - - 0.0
23/03:37pm 10.2 -3.0 6.2 76 1.9 E 65 85 35 46 - - 0.0
23/03:30pm 10.2 -2.3 6.0 75 2.0 ENE 61 76 33 41 - - 0.0
23/03:07pm 10.5 -2.9 5.5 71 2.3 ENE 65 83 35 45 - - 0.0
23/03:00pm 10.6 -3.2 5.4 70 2.4 E 67 83 36 45 - - 0.0
23/02:30pm 11.1 -3.3 5.2 67 2.8 E 70 98 38 53 - - 0.0
23/02:00pm 10.7 -2.9 6.1 73 2.2 E 67 91 36 49 - - 0.0
23/01:30pm 11.1 -4.5 5.0 66 2.8 E 76 95 41 51 - - 0.0
23/01:00pm 11.4 -5.3 5.9 69 2.6 E 83 109 45 59 - - 0.0
23/12:50pm 11.3 -4.9 5.4 67 2.8 E 80 113 43 61 - - 0.0
23/12:32pm 11.6 -3.0 6.1 69 2.6 E 72 95 39 51 - - 0.0
23/12:30pm 11.9 -2.5 7.0 72 2.4 E 72 89 39 48 - - 0.0
23/12:00pm 12.0 -0.9 6.1 67 2.8 E 63 89 34 48 - - 0.0
23/11:33am 12.3 0.7 6.6 68 2.8 E 57 83 31 45 - - 0.0
23/11:30am 12.4 0.9 7.1 70 2.6 E 57 74 31 40 - - 0.0
23/11:01am 11.2 0.6 6.7 74 2.2 E 52 72 28 39 - - 0.0
23/11:00am 11.1 0.5 7.0 76 2.0 E 52 69 28 37 - - 0.0
23/10:30am 11.2 2.2 6.3 72 2.4 E 43 61 23 33 - - 0.0
23/10:03am 11.1 2.5 6.5 73 2.2 ENE 41 63 22 34 - - 0.0
23/10:00am 11.0 2.1 6.7 75 2.1 ENE 43 57 23 31 - - 0.0
23/09:42am 11.0 1.9 6.6 74 2.1 ENE 44 63 24 34 - - 0.0
23/09:30am 11.0 1.9 6.7 75 2.1 E 44 61 24 33 - - 0.0
23/09:05am 11.1 2.9 6.5 73 2.2 E 39 59 21 32 - - 0.0
23/09:00am 11.0 3.6 6.7 75 2.1 ENE 35 50 19 27 - - 2.8
23/08:30am 11.0 3.6 6.7 75 2.1 E 35 57 19 31 - - 2.8
23/08:00am 11.3 1.5 7.0 75 2.1 ENE 48 72 26 39 - - 2.8
23/07:55am 11.1 1.7 7.2 77 1.9 ENE 46 72 25 39 - - 2.8
23/07:51am 11.1 0.2 7.2 77 1.9 NE 54 83 29 45 - - 2.8
23/07:50am 11.2 -0.3 7.3 77 1.9 NE 57 83 31 45 - - 2.8
23/07:49am 11.4 -0.5 7.1 75 2.1 NE 59 83 32 45 - - 2.8
23/07:30am 11.1 -2.2 7.6 79 1.7 ENE 67 89 36 48 - - 2.8
23/07:17am 11.0 -2.6 7.7 80 1.6 NE 69 91 37 49 - - 2.8
23/07:16am 11.1 -2.5 8.0 81 1.5 NE 69 91 37 49 - - 2.8
23/07:15am 11.3 -2.3 8.0 80 1.6 NE 69 91 37 49 - - 2.8
23/07:14am 11.3 -2.5 8.0 80 1.6 NE 70 91 38 49 - - 2.8
23/07:00am 10.7 -1.3 8.1 84 1.3 ENE 61 83 33 45 - - 2.8
23/06:38am 10.5 -1.0 8.6 88 1.0 ENE 59 80 32 43 - - 2.8
23/06:34am 10.9 -0.3 8.5 85 1.2 ENE 57 80 31 43 - - 2.4
23/06:33am 11.1 0.1 8.5 84 1.3 ENE 56 80 30 43 - - 2.4
23/06:30am 10.8 0.1 8.0 83 1.4 ENE 54 80 29 43 - - 2.4
23/06:25am 10.7 0.9 8.5 86 1.1 ENE 50 69 27 37 - - 2.4
23/06:18am 10.4 1.3 8.3 87 1.0 NE 46 67 25 36 - - 2.4
23/06:17am 10.4 1.8 8.7 89 0.9 NE 44 63 24 34 - - 2.4
23/06:16am 10.3 1.8 8.6 89 0.9 NE 43 63 23 34 - - 2.4
23/06:15am 10.3 1.8 8.6 89 0.9 ENE 43 63 23 34 - - 2.4
23/06:13am 10.4 1.7 8.5 88 1.0 ENE 44 63 24 34 - - 2.4
23/06:08am 10.2 1.6 8.8 91 0.7 ENE 44 63 24 34 - - 2.4
23/06:00am 10.3 1.3 8.7 90 0.8 ENE 46 61 25 33 - - 2.4
23/05:36am 11.0 2.8 8.2 83 1.4 NE 41 67 22 36 - - 2.4
23/05:30am 11.0 1.8 8.2 83 1.4 NE 46 69 25 37 - - 2.4
23/05:28am 11.1 1.2 8.1 82 1.5 NE 50 69 27 37 - - 2.4
23/05:24am 11.1 1.9 8.0 81 1.5 ENE 46 69 25 37 - - 2.4
23/05:22am 11.4 2.6 8.1 80 1.6 ENE 44 69 24 37 - - 2.4
23/05:21am 11.1 2.2 7.8 80 1.6 ENE 44 69 24 37 - - 2.4
23/05:00am 10.6 1.4 8.2 85 1.2 NE 46 70 25 38 - - 2.4
23/04:59am 10.7 1.1 8.1 84 1.3 NE 48 70 26 38 - - 2.4
23/04:57am 10.9 1.0 8.1 83 1.4 NE 50 70 27 38 - - 2.4
23/04:56am 10.8 1.3 8.2 84 1.3 ENE 48 70 26 38 - - 2.4
23/04:54am 10.5 1.4 8.3 86 1.1 ENE 46 70 25 38 - - 2.4
23/04:44am 10.2 1.4 8.1 87 1.0 NE 44 59 24 32 - - 2.4
23/04:42am 10.3 1.5 8.2 87 1.0 NE 44 59 24 32 - - 2.4
23/04:30am 10.3 0.9 8.7 90 0.8 ENE 48 72 26 39 - - 2.4
23/04:29am 10.3 1.3 8.7 90 0.8 ENE 46 67 25 36 - - 2.4
23/04:18am 10.3 1.6 8.6 89 0.9 ENE 44 69 24 37 - - 2.2
23/04:17am 10.4 1.8 8.7 89 0.9 ENE 44 69 24 37 - - 2.2
23/04:16am 10.5 1.8 8.6 88 1.0 ENE 44 69 24 37 - - 2.2
23/04:00am 10.4 1.8 8.8 90 0.8 ENE 44 65 24 35 - - 2.2
23/03:59am 10.3 1.8 8.6 89 0.9 ENE 43 63 23 34 - - 2.2
23/03:47am 10.1 1.1 8.9 92 0.6 NE 46 72 25 39 - - 2.2
23/03:45am 10.2 0.9 9.0 92 0.6 NE 48 72 26 39 - - 2.2
23/03:43am 10.1 0.4 8.9 92 0.6 NE 50 72 27 39 - - 2.2
23/03:41am 10.1 0.7 8.9 92 0.6 NE 48 69 26 37 - - 2.2
23/03:38am 10.2 1.2 8.8 91 0.7 NE 46 63 25 34 - - 2.2
23/03:36am 10.3 0.9 8.7 90 0.8 NE 48 63 26 34 - - 2.2
23/03:35am 10.2 0.8 8.8 91 0.7 NE 48 61 26 33 - - 2.2
23/03:30am 10.0 1.0 8.8 92 0.6 ENE 46 67 25 36 - - 2.2
23/03:22am 10.4 0.9 8.5 88 1.0 ENE 48 70 26 38 - - 2.0
23/03:18am 10.9 2.3 8.1 83 1.4 NE 43 69 23 37 - - 1.8
23/03:17am 10.7 2.9 8.1 84 1.3 NE 39 61 21 33 - - 1.8
23/03:15am 10.8 3.3 7.9 82 1.4 ENE 37 57 20 31 - - 1.8
23/03:00am 10.5 2.8 8.8 89 0.9 ENE 39 57 21 31 - - 1.8
23/02:40am 11.2 0.8 7.7 79 1.7 E 52 76 28 41 - - 1.8
23/02:39am 11.2 0.8 7.7 79 1.7 E 52 76 28 41 - - 1.8
23/02:30am 11.3 -0.1 7.6 78 1.8 E 57 85 31 46 - - 1.8
23/02:00am 10.7 0.4 8.3 85 1.2 E 52 74 28 40 - - 1.8
23/01:47am 10.7 1.5 8.1 84 1.3 E 46 65 25 35 - - 1.8
23/01:42am 10.6 0.2 7.8 83 1.4 E 52 69 28 37 - - 1.8
23/01:30am 10.8 -2.0 7.9 82 1.4 ENE 65 85 35 46 - - 1.8
23/01:04am 10.5 -0.6 8.1 85 1.2 ENE 56 74 30 40 - - 1.8
23/01:00am 10.8 -0.4 8.4 85 1.2 ENE 57 70 31 38 - - 1.8
23/12:34am 10.3 0.5 8.6 89 0.9 E 50 70 27 38 - - 1.8
23/12:30am 10.1 0.6 8.5 90 0.8 E 48 59 26 32 - - 1.8
23/12:01am 10.0 -0.1 8.8 92 0.6 E 52 72 28 39 - - 1.8
23/12:00am 10.1 -0.1 8.7 91 0.7 E 52 67 28 36 - - 1.8
 
Date/Time
EST
Temp
°C
App
Temp
°C
Dew
Point
°C
Rel
Hum
%
Delta-T
°C
Wind Press
QNH
hPa
Press
MSL
hPa
Rain since
9am
mm
Dir  Spd
km/h
Gust
km/h
Spd
kts
Gust
kts
22/11:30pm 10.5 0.4 8.8 89 0.9 E 52 70 28 38 - - 1.6
22/11:11pm 10.2 1.6 8.8 91 0.7 ENE 44 63 24 34 - - 1.6
22/11:00pm 10.4 1.8 9.0 91 0.7 E 44 57 24 31 - - 1.6
22/10:30pm 10.4 1.0 8.7 89 0.9 E 48 67 26 36 - - 1.6
22/10:00pm 10.7 -0.3 9.0 89 0.9 E 57 76 31 41 - - 1.6
22/09:42pm 10.7 0.9 8.8 88 1.0 ENE 50 80 27 43 - - 1.6
22/09:41pm 10.7 1.3 8.8 88 1.0 ENE 48 80 26 43 - - 1.6
22/09:30pm 10.5 1.9 8.9 90 0.8 E 44 63 24 34 - - 1.6
22/09:21pm 10.4 3.2 9.0 91 0.7 NE 37 61 20 33 - - 1.6
22/09:18pm 10.4 3.1 8.8 90 0.8 NE 37 50 20 27 - - 1.6
22/09:16pm 10.5 2.9 8.9 90 0.8 NE 39 50 21 27 - - 1.6
22/09:14pm 10.5 3.2 8.9 90 0.8 NE 37 50 20 27 - - 1.6
22/09:13pm 10.4 3.5 8.8 90 0.8 ENE 35 50 19 27 - - 1.6
22/09:00pm 10.0 1.6 8.9 93 0.6 E 43 57 23 31 - - 1.6
22/08:42pm 10.1 2.2 9.5 96 0.3 ENE 41 63 22 34 - - 1.6
22/08:30pm 9.8 2.3 9.3 97 0.3 ENE 39 52 21 28 - - 1.6
22/08:02pm 9.7 0.8 9.2 97 0.3 E 46 65 25 35 - - 1.2
22/08:00pm 9.7 0.4 9.2 97 0.3 E 48 65 26 35 - - 1.2
22/07:34pm 9.4 0.8 8.9 97 0.3 E 44 65 24 35 - - 1.2
22/07:30pm 9.3 0.9 8.8 97 0.3 E 43 57 23 31 - - 1.2
22/07:12pm 9.2 2.3 8.7 97 0.2 ENE 35 54 19 29 - - 1.2
22/07:00pm 9.1 2.1 8.6 97 0.2 E 35 44 19 24 - - 1.0
22/06:30pm 9.2 1.7 8.1 93 0.5 E 37 46 20 25 - - 0.8
22/06:00pm 9.8 0.1 7.7 87 1.0 E 48 67 26 36 - - 0.8
22/05:53pm 9.7 0.4 7.5 86 1.1 E 46 67 25 36 - - 0.8
22/05:30pm 9.8 0.5 7.6 86 1.1 E 46 61 25 33 - - 0.8
22/05:08pm 9.8 -0.3 7.4 85 1.2 E 50 69 27 37 - - 0.8
22/05:00pm 9.8 -0.7 7.4 85 1.2 E 52 65 28 35 - - 0.8
22/04:30pm 9.8 0.1 7.7 87 1.0 E 48 67 26 36 - - 0.8
22/04:13pm 9.9 1.0 7.8 87 1.0 E 44 67 24 36 - - 0.8
22/04:00pm 9.8 0.1 7.7 87 1.0 E 48 65 26 35 - - 0.8
22/03:33pm 9.8 1.1 7.9 88 0.9 E 43 63 23 34 - - 0.8
22/03:30pm 9.8 1.6 8.1 89 0.8 E 41 56 22 30 - - 0.8
22/03:22pm 9.8 2.0 8.1 89 0.8 E 39 57 21 31 - - 0.8
22/03:00pm 9.8 1.6 8.2 90 0.8 E 41 52 22 28 - - 0.8
22/02:30pm 9.8 1.2 8.2 90 0.8 E 43 56 23 30 - - 0.8
22/02:24pm 10.1 2.9 9.2 94 0.5 E 37 56 20 30 - - 0.8
22/02:00pm 9.4 1.3 8.5 94 0.4 ENE 41 52 22 28 - - 0.8
22/01:30pm 9.5 1.0 8.7 95 0.4 E 43 56 23 30 - - 0.8
22/01:17pm 9.7 3.5 9.2 97 0.3 ENE 32 50 17 27 - - 0.8
22/01:00pm 9.6 2.8 9.1 97 0.3 E 35 48 19 26 - - 0.8
22/12:30pm 9.9 3.7 9.4 97 0.3 ENE 32 39 17 21 - - 0.4
22/12:11pm 9.5 2.7 9.2 98 0.2 ENE 35 46 19 25 - - 0.2
22/12:09pm 9.5 2.7 9.2 98 0.2 NE 35 46 19 25 - - 0.2
22/12:06pm 9.4 2.6 9.1 98 0.2 NE 35 44 19 24 - - 0.2
22/12:00pm 9.6 2.8 9.3 98 0.2 ENE 35 43 19 23 - - 0.2
22/11:30am 9.3 3.8 9.0 98 0.2 NE 28 39 15 21 - - 0.2
22/11:00am 9.1 4.3 8.8 98 0.1 N 24 30 13 16 - - 0.2
22/10:30am 9.3 4.9 9.0 98 0.2 N 22 28 12 15 - - 0.2
22/10:00am 9.0 4.2 8.7 98 0.1 N 24 30 13 16 - - 0.2
22/09:30am 8.5 3.9 8.2 98 0.1 NE 22 28 12 15 - - 0.0
22/09:00am 8.1 4.0 7.8 98 0.1 N 19 22 10 12 - - 7.2
22/08:30am 7.2 3.3 6.9 98 0.1 ENE 17 26 9 14 - - 7.2
22/08:00am 6.6 4.0 6.2 97 0.2 NE 9 15 5 8 - - 7.2
22/07:30am 7.1 3.9 6.7 97 0.2 N 13 17 7 9 - - 7.2
22/07:00am 7.6 4.1 7.2 97 0.2 ENE 15 19 8 10 - - 7.2
22/06:30am 7.7 2.9 7.3 97 0.2 NE 22 28 12 15 - - 7.2
22/06:00am 7.7 3.3 7.3 97 0.2 ENE 20 24 11 13 - - 7.2
22/05:30am 7.7 3.2 7.1 96 0.3 ENE 20 24 11 13 - - 7.2
22/05:00am 7.9 3.5 7.3 96 0.3 ENE 20 24 11 13 - - 7.2
22/04:30am 8.0 3.6 7.6 97 0.2 ENE 20 26 11 14 - - 7.2
22/04:00am 8.3 4.2 7.9 97 0.2 NE 19 20 10 11 - - 7.2
22/03:30am 8.6 4.4 8.2 97 0.2 ENE 20 26 11 14 - - 7.2
22/03:00am 8.8 1.4 8.2 96 0.3 ENE 37 46 20 25 - - 7.2
22/02:30am 8.8 1.4 8.2 96 0.3 ENE 37 48 20 26 - - 7.2
22/02:00am 8.5 1.8 8.1 97 0.2 ENE 33 41 18 22 - - 7.2
22/01:30am 8.4 1.7 8.0 97 0.2 E 33 46 18 25 - - 7.2
22/01:23am 8.4 2.6 8.0 97 0.2 ENE 28 46 15 25 - - 7.2
22/01:00am 8.5 1.4 7.9 96 0.3 ENE 35 44 19 24 - - 6.8
22/12:47am 8.6 1.5 8.2 97 0.2 ENE 35 54 19 29 - - 6.8
22/12:30am 9.0 0.2 8.2 95 0.4 ENE 44 65 24 35 - - 6.4
22/12:27am 9.0 0.2 8.1 94 0.4 ENE 44 65 24 35 - - 6.0
22/12:26am 9.1 0.3 8.2 94 0.4 ENE 44 65 24 35 - - 6.0
22/12:11am 9.1 1.3 8.2 94 0.4 ENE 39 57 21 31 - - 5.2
22/12:00am 9.1 1.3 8.2 94 0.4 ENE 39 50 21 27 - - 5.2
 
Date/Time
EST
Temp
°C
App
Temp
°C
Dew
Point
°C
Rel
Hum
%
Delta-T
°C
Wind Press
QNH
hPa
Press
MSL
hPa
Rain since
9am
mm
Dir  Spd
km/h
Gust
km/h
Spd
kts
Gust
kts
21/11:30pm 9.1 0.5 8.2 94 0.4 ENE 43 54 23 29 - - 5.2
21/11:13pm 9.1 0.5 8.3 95 0.4 NE 43 52 23 28 - - 5.2
21/11:10pm 9.1 1.0 8.5 96 0.3 NE 41 52 22 28 - - 5.2
21/11:09pm 9.0 0.8 8.4 96 0.3 ENE 41 52 22 28 - - 5.2
21/11:08pm 9.0 1.2 8.4 96 0.3 ENE 39 52 21 28 - - 5.2
21/11:07pm 9.0 1.2 8.4 96 0.3 ENE 39 52 21 28 - - 5.2
21/11:00pm 8.8 2.2 8.4 97 0.2 ENE 33 43 18 23 - - 5.2
21/10:38pm 8.8 2.7 8.4 97 0.2 ENE 30 48 16 26 - - 4.4
21/10:30pm 8.7 3.0 8.3 97 0.2 E 28 35 15 19 - - 3.6
21/10:00pm 9.1 1.8 8.6 97 0.2 ENE 37 57 20 31 - - 3.6
21/09:30pm 8.7 2.1 8.4 98 0.1 E 33 44 18 24 - - 3.4
21/09:00pm 8.6 2.5 8.3 98 0.1 ENE 30 37 16 20 - - 3.2
21/08:46pm 8.7 2.6 8.4 98 0.1 ENE 30 50 16 27 - - 3.2
21/08:30pm 8.6 4.4 8.3 98 0.1 ENE 20 28 11 15 - - 2.8
21/08:00pm 8.7 3.0 8.4 98 0.1 E 28 35 15 19 - - 2.4
21/07:30pm 8.8 1.4 8.4 97 0.2 E 37 44 20 24 - - 2.4
21/07:00pm 8.7 1.7 8.3 97 0.2 ENE 35 43 19 23 - - 2.0
21/06:30pm 8.5 3.9 8.1 97 0.2 ENE 22 39 12 21 - - 2.0
21/06:00pm 8.5 4.5 8.1 97 0.2 ENE 19 35 10 19 - - 2.0
21/05:41pm 8.7 3.0 8.4 98 0.1 ENE 28 46 15 25 - - 2.0
21/05:30pm 8.7 3.8 8.4 98 0.1 ENE 24 35 13 19 - - 1.8
21/05:00pm 8.5 4.9 8.2 98 0.1 NE 17 22 9 12 - - 1.8
21/04:30pm 8.5 2.0 8.2 98 0.1 NNE 32 39 17 21 - - 1.6
21/04:00pm 8.6 2.9 8.3 98 0.1 NE 28 35 15 19 - - 1.6
21/03:30pm 8.4 3.0 8.1 98 0.1 NE 26 35 14 19 - - 1.2
21/03:00pm 8.3 1.5 7.9 97 0.2 NE 33 43 18 23 - - 1.2
21/02:30pm 8.3 1.2 7.9 97 0.2 ENE 35 43 19 23 - - 1.0
21/02:00pm 8.3 1.1 7.5 95 0.4 ENE 35 48 19 26 - - 0.4
21/01:30pm 8.4 2.2 7.8 96 0.3 ENE 30 35 16 19 - - 0.2
21/01:00pm 8.3 0.7 7.4 94 0.4 ENE 37 43 20 23 - - 0.0
21/12:30pm 8.4 1.5 7.3 93 0.5 ENE 33 43 18 23 - - 0.0
21/12:00pm 8.1 2.3 6.4 89 0.8 ENE 26 32 14 17 - - 0.0
21/11:30am 7.3 1.9 6.2 93 0.5 ENE 24 30 13 16 - - 0.0
21/11:00am 7.0 1.2 6.3 95 0.3 NE 26 33 14 18 - - 0.0
21/10:30am 6.9 -0.4 5.4 90 0.7 E 33 37 18 20 - - 0.0
21/10:00am 6.6 0.1 4.9 89 0.8 ENE 28 32 15 17 - - 0.0

Other formats

Comma delimited format used in spreadsheet applications
http://www.bom.gov.au/fwo/IDT60801/IDT60801.95958.axf

JavaScript Object Notation format (JSON) in row-major order
http://www.bom.gov.au/fwo/IDT60801/IDT60801.95958.json

Data quality

Most of these data are generated automatically and are frequently updated. Quality checks on data are not normally performed. It is possible for incorrect values to appear. Refer to information at About Latest Weather Observations and please check the disclaimer before using these data.